Time,TemperatureF,DewpointF,PressureIn,WindDirection,WindDirectionDegrees,WindSpeedMPH,WindSpeedGustMPH,Humidity,HourlyPrecipIn,Conditions,Clouds,dailyrainin,SoftwareType,DateUTC
2013-04-20 00:01:00,32.1,30.3,29.76,West,281,6.0,6.0,93,0.00,,,0.00,Wunderground v.1.15,2013-04-20 04:01:00,
2013-04-20 00:03:00,32.1,30.0,29.76,West,273,5.0,6.0,92,0.00,,,0.00,Wunderground v.1.15,2013-04-20 04:03:00,
2013-04-20 00:07:00,32.1,30.0,29.76,WNW,286,5.0,7.0,92,0.00,,,0.00,Wunderground v.1.15,2013-04-20 04:07:00,
2013-04-20 00:12:00,32.1,30.0,29.76,West,269,5.0,10.0,92,0.00,,,0.00,Wunderground v.1.15,2013-04-20 04:12:00,
2013-04-20 00:15:00,32.2,30.1,29.76,West,261,6.0,10.0,92,0.00,,,0.00,Wunderground v.1.15,2013-04-20 04:15:00,
2013-04-20 00:21:00,32.2,29.9,29.76,WNW,299,5.0,7.0,91,0.00,,,0.00,Wunderground v.1.15,2013-04-20 04:21:00,
2013-04-20 00:26:00,32.2,29.9,29.76,West,267,5.0,7.0,91,0.00,,,0.00,Wunderground v.1.15,2013-04-20 04:26:00,
2013-04-20 00:32:00,32.2,29.9,29.76,West,280,5.0,5.0,91,0.00,,,0.00,Wunderground v.1.15,2013-04-20 04:32:00,
2013-04-20 00:37:00,32.1,29.5,29.77,WNW,285,5.0,6.0,90,0.00,,,0.00,Wunderground v.1.15,2013-04-20 04:37:00,
2013-04-20 00:43:00,32.1,29.5,29.77,West,273,5.0,6.0,90,0.00,,,0.00,Wunderground v.1.15,2013-04-20 04:43:00,
2013-04-20 00:49:00,32.2,29.6,29.77,West,273,5.0,7.0,90,0.00,,,0.00,Wunderground v.1.15,2013-04-20 04:49:00,
2013-04-20 00:55:00,32.3,29.7,29.77,WNW,284,5.0,9.0,90,0.00,,,0.00,Wunderground v.1.15,2013-04-20 04:55:00,
2013-04-20 01:01:00,32.3,29.4,29.78,West,273,6.0,6.0,89,0.00,,,0.00,Wunderground v.1.15,2013-04-20 05:01:00,
2013-04-20 01:06:00,32.4,29.5,29.78,WSW,257,6.0,7.0,89,0.00,,,0.00,Wunderground v.1.15,2013-04-20 05:06:00,
2013-04-20 01:11:00,32.4,29.2,29.78,WNW,285,6.0,6.0,88,0.00,,,0.00,Wunderground v.1.15,2013-04-20 05:11:00,
2013-04-20 01:16:00,32.4,29.2,29.78,West,277,6.0,7.0,88,0.00,,,0.00,Wunderground v.1.15,2013-04-20 05:16:00,
2013-04-20 01:22:00,32.3,29.1,29.79,WSW,250,5.0,9.0,88,0.00,,,0.00,Wunderground v.1.15,2013-04-20 05:22:00,
2013-04-20 01:27:00,32.3,29.1,29.79,West,268,5.0,9.0,88,0.00,,,0.00,Wunderground v.1.15,2013-04-20 05:27:00,
2013-04-20 01:33:00,32.3,29.1,29.79,West,273,5.0,7.0,88,0.00,,,0.00,Wunderground v.1.15,2013-04-20 05:33:00,
2013-04-20 01:39:00,32.5,29.1,29.79,WNW,285,6.0,11.0,87,0.00,,,0.00,Wunderground v.1.15,2013-04-20 05:39:00,
2013-04-20 01:44:00,32.5,29.1,29.80,West,273,7.0,12.0,87,0.00,,,0.00,Wunderground v.1.15,2013-04-20 05:44:00,
2013-04-20 01:50:00,32.5,29.1,29.80,WNW,285,6.0,6.0,87,0.00,,,0.00,Wunderground v.1.15,2013-04-20 05:50:00,
2013-04-20 01:55:00,32.6,28.9,29.80,WNW,292,6.0,8.0,86,0.00,,,0.00,Wunderground v.1.15,2013-04-20 05:55:00,
2013-04-20 02:01:00,32.6,28.9,29.80,West,264,6.0,7.0,86,0.00,,,0.00,Wunderground v.1.15,2013-04-20 06:01:00,
2013-04-20 02:06:00,32.6,28.9,29.81,NW,307,5.0,10.0,86,0.00,,,0.00,Wunderground v.1.15,2013-04-20 06:06:00,
2013-04-20 02:12:00,32.8,29.1,29.80,WNW,292,6.0,6.0,86,0.00,,,0.00,Wunderground v.1.15,2013-04-20 06:12:00,
2013-04-20 02:17:00,32.8,29.1,29.80,WNW,288,6.0,9.0,86,0.00,,,0.00,Wunderground v.1.15,2013-04-20 06:17:00,
2013-04-20 02:23:00,32.8,29.1,29.81,NW,306,6.0,10.0,86,0.00,,,0.00,Wunderground v.1.15,2013-04-20 06:23:00,
2013-04-20 02:29:00,32.9,29.2,29.81,WNW,302,6.0,10.0,86,0.00,,,0.00,Wunderground v.1.15,2013-04-20 06:29:00,
2013-04-20 02:34:00,32.9,28.9,29.81,WNW,289,6.0,10.0,85,0.00,,,0.00,Wunderground v.1.15,2013-04-20 06:34:00,
2013-04-20 02:40:00,32.9,28.9,29.81,West,280,6.0,6.0,85,0.00,,,0.00,Wunderground v.1.15,2013-04-20 06:40:00,
2013-04-20 02:45:00,32.9,28.6,29.81,NW,304,6.0,7.0,84,0.00,,,0.00,Wunderground v.1.15,2013-04-20 06:45:00,
2013-04-20 02:51:00,33.0,28.7,29.82,West,278,6.0,14.0,84,0.00,,,0.00,Wunderground v.1.15,2013-04-20 06:51:00,
2013-04-20 02:56:00,32.7,28.4,29.83,NW,310,8.0,14.0,84,0.00,,,0.00,Wunderground v.1.15,2013-04-20 06:56:00,
2013-04-20 03:02:00,30.6,27.2,29.83,West,269,10.0,13.0,87,0.00,,,0.00,Wunderground v.1.15,2013-04-20 07:02:00,
2013-04-20 03:07:00,30.5,27.4,29.83,West,277,9.0,13.0,88,0.00,,,0.00,Wunderground v.1.15,2013-04-20 07:07:00,
2013-04-20 03:13:00,30.7,27.0,29.83,WNW,300,7.0,10.0,86,0.00,,,0.00,Wunderground v.1.15,2013-04-20 07:13:00,
2013-04-20 03:19:00,31.0,26.7,29.84,NW,309,7.0,10.0,84,0.00,,,0.00,Wunderground v.1.15,2013-04-20 07:19:00,
2013-04-20 03:25:00,31.2,26.6,29.84,NW,309,8.0,18.0,83,0.00,,,0.00,Wunderground v.1.15,2013-04-20 07:25:00,
2013-04-20 03:31:00,31.4,26.5,29.84,West,273,7.0,7.0,82,0.00,,,0.00,Wunderground v.1.15,2013-04-20 07:31:00,
2013-04-20 03:36:00,31.6,26.4,29.84,NW,306,8.0,14.0,81,0.00,,,0.00,Wunderground v.1.15,2013-04-20 07:36:00,
2013-04-20 03:42:00,31.6,25.8,29.85,NNW,338,8.0,11.0,79,0.00,,,0.00,Wunderground v.1.15,2013-04-20 07:42:00,
2013-04-20 03:47:00,31.6,25.5,29.85,West,277,8.0,12.0,78,0.00,,,0.00,Wunderground v.1.15,2013-04-20 07:47:00,
2013-04-20 03:53:00,31.6,25.2,29.85,WNW,282,8.0,10.0,77,0.00,,,0.00,Wunderground v.1.15,2013-04-20 07:53:00,
2013-04-20 03:59:00,31.6,25.2,29.86,WNW,291,8.0,10.0,77,0.00,,,0.00,Wunderground v.1.15,2013-04-20 07:59:00,
2013-04-20 04:04:00,31.5,25.4,29.86,NW,318,8.0,13.0,78,0.00,,,0.00,Wunderground v.1.15,2013-04-20 08:04:00,
2013-04-20 04:10:00,31.4,25.0,29.86,WNW,294,8.0,8.0,77,0.00,,,0.00,Wunderground v.1.15,2013-04-20 08:10:00,
2013-04-20 04:15:00,31.3,24.6,29.87,NW,309,7.0,9.0,76,0.00,,,0.00,Wunderground v.1.15,2013-04-20 08:15:00,
2013-04-20 04:20:00,31.2,24.2,29.87,WNW,287,7.0,7.0,75,0.00,,,0.00,Wunderground v.1.15,2013-04-20 08:20:00,
2013-04-20 04:26:00,31.1,23.8,29.88,NW,321,8.0,10.0,74,0.00,,,0.00,Wunderground v.1.15,2013-04-20 08:26:00,
2013-04-20 04:31:00,31.0,23.4,29.89,WNW,286,7.0,7.0,73,0.00,,,0.00,Wunderground v.1.15,2013-04-20 08:31:00,
2013-04-20 04:36:00,30.9,23.3,29.89,WNW,299,6.0,12.0,73,0.00,,,0.00,Wunderground v.1.15,2013-04-20 08:36:00,
2013-04-20 04:42:00,30.8,22.8,29.90,NNW,348,7.0,13.0,72,0.00,,,0.00,Wunderground v.1.15,2013-04-20 08:42:00,
2013-04-20 04:48:00,30.8,22.8,29.90,WNW,298,8.0,14.0,72,0.00,,,0.00,Wunderground v.1.15,2013-04-20 08:48:00,
2013-04-20 04:53:00,30.7,22.7,29.90,WNW,296,8.0,11.0,72,0.00,,,0.00,Wunderground v.1.15,2013-04-20 08:53:00,
2013-04-20 04:59:00,30.5,22.2,29.91,NW,319,9.0,13.0,71,0.00,,,0.00,Wunderground v.1.15,2013-04-20 08:59:00,
2013-04-20 05:05:00,30.2,22.3,29.91,NW,314,7.0,15.0,72,0.00,,,0.00,Wunderground v.1.15,2013-04-20 09:05:00,
2013-04-20 05:10:00,30.0,22.1,29.91,NNW,330,7.0,7.0,72,0.00,,,0.00,Wunderground v.1.15,2013-04-20 09:10:00,
2013-04-20 05:16:00,29.6,22.0,29.92,North,9,6.0,11.0,73,0.00,,,0.00,Wunderground v.1.15,2013-04-20 09:16:00,
2013-04-20 05:21:00,29.4,21.8,29.92,NW,319,6.0,6.0,73,0.00,,,0.00,Wunderground v.1.15,2013-04-20 09:21:00,
2013-04-20 05:26:00,29.3,21.7,29.92,NW,306,6.0,6.0,73,0.00,,,0.00,Wunderground v.1.15,2013-04-20 09:26:00,
2013-04-20 05:32:00,29.3,21.4,29.93,NW,304,6.0,10.0,72,0.00,,,0.00,Wunderground v.1.15,2013-04-20 09:32:00,
2013-04-20 05:37:00,29.3,20.7,29.93,NW,321,7.0,10.0,70,0.00,,,0.00,Wunderground v.1.15,2013-04-20 09:37:00,
2013-04-20 05:43:00,29.3,20.7,29.93,NNW,330,5.0,6.0,70,0.00,,,0.00,Wunderground v.1.15,2013-04-20 09:43:00,
2013-04-20 05:49:00,29.2,20.3,29.94,NW,304,6.0,13.0,69,0.00,,,0.00,Wunderground v.1.15,2013-04-20 09:49:00,
2013-04-20 05:54:00,29.0,19.8,29.94,NW,305,7.0,8.0,68,0.00,,,0.00,Wunderground v.1.15,2013-04-20 09:54:00,
2013-04-20 06:00:00,29.0,20.1,29.94,NW,317,7.0,7.0,69,0.00,,,0.00,Wunderground v.1.15,2013-04-20 10:00:00,
2013-04-20 06:06:00,28.9,19.7,29.95,WNW,302,6.0,9.0,68,0.00,,,0.00,Wunderground v.1.15,2013-04-20 10:06:00,
2013-04-20 06:11:00,28.9,19.7,29.95,NW,311,6.0,7.0,68,0.00,,,0.00,Wunderground v.1.15,2013-04-20 10:11:00,
2013-04-20 06:16:00,28.9,19.7,29.96,NNW,340,6.0,14.0,68,0.00,,,0.00,Wunderground v.1.15,2013-04-20 10:16:00,
2013-04-20 06:22:00,28.8,19.6,29.96,NW,311,5.0,14.0,68,0.00,,,0.00,Wunderground v.1.15,2013-04-20 10:22:00,
2013-04-20 06:27:00,28.9,19.7,29.97,NNW,343,6.0,14.0,68,0.00,,,0.00,Wunderground v.1.15,2013-04-20 10:27:00,
2013-04-20 06:32:00,28.9,19.7,29.97,NNW,346,7.0,13.0,68,0.00,,,0.00,Wunderground v.1.15,2013-04-20 10:32:00,
2013-04-20 06:38:00,28.9,19.7,29.98,NW,326,8.0,18.0,68,0.00,,,0.00,Wunderground v.1.15,2013-04-20 10:38:00,
2013-04-20 06:43:00,28.7,18.1,29.98,NW,304,8.0,13.0,64,0.00,,,0.00,Wunderground v.1.15,2013-04-20 10:43:00,
2013-04-20 06:49:00,28.3,17.3,29.99,WNW,283,9.0,13.0,63,0.00,,,0.00,Wunderground v.1.15,2013-04-20 10:49:00,
2013-04-20 06:55:00,28.0,17.0,29.99,NW,317,8.0,12.0,63,0.00,,,0.00,Wunderground v.1.15,2013-04-20 10:55:00,
2013-04-20 07:00:00,27.9,17.3,29.99,NNW,331,8.0,9.0,64,0.00,,,0.00,Wunderground v.1.15,2013-04-20 11:00:00,
2013-04-20 07:05:00,27.9,17.6,30.00,West,275,8.0,12.0,65,0.00,,,0.00,Wunderground v.1.15,2013-04-20 11:05:00,
2013-04-20 07:11:00,27.9,17.6,30.01,WNW,303,8.0,12.0,65,0.00,,,0.00,Wunderground v.1.15,2013-04-20 11:11:00,
2013-04-20 07:17:00,27.9,18.0,30.01,NW,307,8.0,12.0,66,0.00,,,0.00,Wunderground v.1.15,2013-04-20 11:17:00,
2013-04-20 07:22:00,27.8,17.9,30.02,NNW,345,7.0,7.0,66,0.00,,,0.00,Wunderground v.1.15,2013-04-20 11:22:00,
2013-04-20 07:27:00,27.8,17.9,30.02,NW,310,6.0,9.0,66,0.00,,,0.00,Wunderground v.1.15,2013-04-20 11:27:00,
2013-04-20 07:33:00,27.8,17.9,30.02,NNW,327,6.0,9.0,66,0.00,,,0.00,Wunderground v.1.15,2013-04-20 11:33:00,
2013-04-20 07:39:00,27.8,16.8,30.03,WNW,290,7.0,18.0,63,0.00,,,0.00,Wunderground v.1.15,2013-04-20 11:39:00,
2013-04-20 07:44:00,27.8,16.8,30.03,NNW,331,7.0,15.0,63,0.00,,,0.00,Wunderground v.1.15,2013-04-20 11:44:00,
2013-04-20 07:50:00,27.8,16.8,30.04,NW,308,7.0,7.0,63,0.00,,,0.00,Wunderground v.1.15,2013-04-20 11:50:00,
2013-04-20 07:55:00,28.0,17.0,30.04,NW,305,6.0,7.0,63,0.00,,,0.00,Wunderground v.1.15,2013-04-20 11:55:00,
2013-04-20 08:00:00,28.0,17.0,30.04,NNW,332,6.0,6.0,63,0.00,,,0.00,Wunderground v.1.15,2013-04-20 12:00:00,
2013-04-20 08:05:00,28.1,16.7,30.05,NNE,22,6.0,16.0,62,0.00,,,0.00,Wunderground v.1.15,2013-04-20 12:05:00,
2013-04-20 08:10:00,28.1,17.1,30.05,North,355,8.0,8.0,63,0.00,,,0.00,Wunderground v.1.15,2013-04-20 12:10:00,
2013-04-20 08:16:00,28.3,16.9,30.06,North,355,8.0,10.0,62,0.00,,,0.00,Wunderground v.1.15,2013-04-20 12:16:00,
2013-04-20 08:22:00,28.4,17.0,30.06,NNW,331,8.0,10.0,62,0.00,,,0.00,Wunderground v.1.15,2013-04-20 12:22:00,
2013-04-20 08:27:00,28.6,17.6,30.07,West,267,7.0,12.0,63,0.00,,,0.00,Wunderground v.1.15,2013-04-20 12:27:00,
2013-04-20 08:33:00,29.0,18.3,30.07,WNW,302,6.0,7.0,64,0.00,,,0.00,Wunderground v.1.15,2013-04-20 12:33:00,
2013-04-20 08:39:00,29.3,18.6,30.07,NNW,331,4.0,7.0,64,0.00,,,0.00,Wunderground v.1.15,2013-04-20 12:39:00,
2013-04-20 08:44:00,29.3,17.9,30.07,NW,321,6.0,11.0,62,0.00,,,0.00,Wunderground v.1.15,2013-04-20 12:44:00,
2013-04-20 08:50:00,29.1,18.1,30.08,NNW,340,7.0,7.0,63,0.00,,,0.00,Wunderground v.1.15,2013-04-20 12:50:00,
2013-04-20 08:56:00,29.1,17.7,30.08,North,5,7.0,11.0,62,0.00,,,0.00,Wunderground v.1.15,2013-04-20 12:56:00,
2013-04-20 09:02:00,29.2,18.5,30.09,NNW,334,8.0,8.0,64,0.00,,,0.00,Wunderground v.1.15,2013-04-20 13:02:00,
2013-04-20 09:07:00,29.3,18.6,30.09,NW,317,7.0,11.0,64,0.00,,,0.00,Wunderground v.1.15,2013-04-20 13:07:00,
2013-04-20 09:14:00,29.2,18.2,30.09,NNW,333,7.0,15.0,63,0.00,,,0.00,Wunderground v.1.15,2013-04-20 13:14:00,
2013-04-20 09:19:00,29.2,18.2,30.10,North,355,8.0,12.0,63,0.00,,,0.00,Wunderground v.1.15,2013-04-20 13:19:00,
2013-04-20 09:24:00,29.2,18.2,30.10,NW,313,8.0,12.0,63,0.00,,,0.00,Wunderground v.1.15,2013-04-20 13:24:00,
2013-04-20 09:30:00,29.1,17.7,30.11,NW,325,6.0,12.0,62,0.00,,,0.00,Wunderground v.1.15,2013-04-20 13:30:00,
2013-04-20 09:36:00,29.1,18.1,30.11,NW,316,7.0,12.0,63,0.00,,,0.00,Wunderground v.1.15,2013-04-20 13:36:00,
2013-04-20 09:41:00,29.3,17.9,30.11,NNW,335,6.0,7.0,62,0.00,,,0.00,Wunderground v.1.15,2013-04-20 13:41:00,
2013-04-20 09:47:00,29.4,18.3,30.11,WNW,292,6.0,14.0,63,0.00,,,0.00,Wunderground v.1.15,2013-04-20 13:47:00,
2013-04-20 09:53:00,29.5,18.8,30.12,NNW,340,7.0,10.0,64,0.00,,,0.00,Wunderground v.1.15,2013-04-20 13:53:00,
2013-04-20 09:58:00,29.8,19.1,30.12,NW,322,6.0,10.0,64,0.00,,,0.00,Wunderground v.1.15,2013-04-20 13:58:00,
2013-04-20 10:04:00,30.1,18.6,30.13,NW,315,7.0,13.0,62,0.00,,,0.00,Wunderground v.1.15,2013-04-20 14:04:00,
2013-04-20 10:10:00,30.6,19.1,30.13,North,355,7.0,7.0,62,0.00,,,0.00,Wunderground v.1.15,2013-04-20 14:10:00,
2013-04-20 10:16:00,30.6,19.1,30.13,North,355,6.0,9.0,62,0.00,,,0.00,Wunderground v.1.15,2013-04-20 14:16:00,
2013-04-20 10:24:00,30.2,19.5,30.14,West,273,7.0,11.0,64,0.00,,,0.00,Wunderground v.1.15,2013-04-20 14:24:00,
2013-04-20 10:29:00,29.9,18.8,30.15,NW,304,7.0,12.0,63,0.00,,,0.00,Wunderground v.1.15,2013-04-20 14:29:00,
2013-04-20 10:35:00,29.9,19.2,30.15,WNW,282,9.0,18.0,64,0.00,,,0.00,Wunderground v.1.15,2013-04-20 14:35:00,
2013-04-20 10:40:00,30.3,18.8,30.16,NW,310,8.0,14.0,62,0.00,,,0.00,Wunderground v.1.15,2013-04-20 14:40:00,
2013-04-20 10:46:00,30.4,18.9,30.16,WNW,302,8.0,14.0,62,0.00,,,0.00,Wunderground v.1.15,2013-04-20 14:46:00,
2013-04-20 10:55:00,31.0,20.2,30.16,NNW,336,7.0,9.0,64,0.00,,,0.00,Wunderground v.1.15,2013-04-20 14:55:00,
2013-04-20 11:00:00,31.6,20.1,30.17,NW,321,6.0,7.0,62,0.00,,,0.00,Wunderground v.1.15,2013-04-20 15:00:00,
2013-04-20 11:05:00,31.6,19.3,30.17,WNW,296,8.0,11.0,60,0.00,,,0.00,Wunderground v.1.15,2013-04-20 15:05:00,
2013-04-20 11:10:00,31.8,20.3,30.17,NNW,346,7.0,7.0,62,0.00,,,0.00,Wunderground v.1.15,2013-04-20 15:10:00,
2013-04-20 11:16:00,31.6,19.7,30.17,NW,313,7.0,13.0,61,0.00,,,0.00,Wunderground v.1.15,2013-04-20 15:16:00,
2013-04-20 11:21:00,31.2,20.1,30.17,NNW,330,8.0,10.0,63,0.00,,,0.00,Wunderground v.1.15,2013-04-20 15:21:00,
2013-04-20 11:26:00,31.7,20.5,30.18,NNW,338,7.0,11.0,63,0.00,,,0.00,Wunderground v.1.15,2013-04-20 15:26:00,
2013-04-20 11:31:00,31.9,21.1,30.18,WNW,287,8.0,14.0,64,0.00,,,0.00,Wunderground v.1.15,2013-04-20 15:31:00,
2013-04-20 11:36:00,32.1,20.5,30.18,NW,325,8.0,14.0,62,0.00,,,0.00,Wunderground v.1.15,2013-04-20 15:36:00,
2013-04-20 11:42:00,32.5,20.9,30.19,NNW,346,8.0,9.0,62,0.00,,,0.01,Wunderground v.1.15,2013-04-20 15:42:00,
2013-04-20 11:48:00,32.8,21.2,30.19,WNW,292,7.0,10.0,62,0.06,,,0.02,Wunderground v.1.15,2013-04-20 15:48:00,
2013-04-20 11:53:00,32.5,21.7,30.19,NW,311,6.0,7.0,64,0.06,,,0.02,Wunderground v.1.15,2013-04-20 15:53:00,
2013-04-20 11:59:00,32.3,21.1,30.20,NNE,12,7.0,11.0,63,0.05,,,0.02,Wunderground v.1.15,2013-04-20 15:59:00,
2013-04-20 12:04:00,32.0,21.2,30.20,NNW,335,8.0,11.0,64,0.04,,,0.03,Wunderground v.1.15,2013-04-20 16:04:00,
2013-04-20 12:09:00,32.2,21.0,30.20,West,279,8.0,8.0,63,0.04,,,0.03,Wunderground v.1.15,2013-04-20 16:09:00,
2013-04-20 12:14:00,32.3,21.5,30.20,West,280,8.0,14.0,64,0.04,,,0.03,Wunderground v.1.15,2013-04-20 16:14:00,
2013-04-20 12:20:00,32.9,21.7,30.20,WSW,257,7.0,10.0,63,0.00,,,0.03,Wunderground v.1.15,2013-04-20 16:20:00,
2013-04-20 12:26:00,32.7,21.1,30.21,West,272,6.0,11.0,62,0.00,,,0.04,Wunderground v.1.15,2013-04-20 16:26:00,
2013-04-20 12:32:00,32.9,21.3,30.21,NW,319,7.0,9.0,62,0.00,,,0.04,Wunderground v.1.15,2013-04-20 16:32:00,
2013-04-20 12:37:00,32.9,22.0,30.21,West,275,7.0,11.0,64,0.00,,,0.04,Wunderground v.1.15,2013-04-20 16:37:00,
2013-04-20 12:42:00,33.2,22.0,30.21,West,270,7.0,10.0,63,0.00,,,0.05,Wunderground v.1.15,2013-04-20 16:42:00,
2013-04-20 12:48:00,33.4,21.4,30.21,West,281,7.0,11.0,61,0.00,,,0.05,Wunderground v.1.15,2013-04-20 16:48:00,
2013-04-20 12:54:00,33.3,22.1,30.22,NNW,333,8.0,8.0,63,0.00,,,0.05,Wunderground v.1.15,2013-04-20 16:54:00,
2013-04-20 13:00:00,34.1,22.0,30.22,NNW,327,5.0,5.0,61,0.00,,,0.06,Wunderground v.1.15,2013-04-20 17:00:00,
2013-04-20 13:05:00,34.0,22.3,30.22,NW,321,5.0,12.0,62,0.00,,,0.06,Wunderground v.1.15,2013-04-20 17:05:00,
2013-04-20 13:11:00,34.0,22.3,30.22,West,273,6.0,7.0,62,0.00,,,0.06,Wunderground v.1.15,2013-04-20 17:11:00,
2013-04-20 13:16:00,34.0,22.3,30.22,NNW,333,6.0,7.0,62,0.00,,,0.06,Wunderground v.1.15,2013-04-20 17:16:00,
2013-04-20 13:22:00,34.1,22.4,30.23,North,11,6.0,11.0,62,0.00,,,0.06,Wunderground v.1.15,2013-04-20 17:22:00,
2013-04-20 13:28:00,34.0,22.0,30.23,NW,319,7.0,11.0,61,0.00,,,0.07,Wunderground v.1.15,2013-04-20 17:28:00,
2013-04-20 13:33:00,34.2,22.1,30.23,North,355,7.0,14.0,61,0.00,,,0.07,Wunderground v.1.15,2013-04-20 17:33:00,
2013-04-20 13:39:00,34.3,24.1,30.23,West,281,7.0,12.0,66,0.00,,,0.07,Wunderground v.1.15,2013-04-20 17:39:00,
2013-04-20 13:44:00,34.6,24.0,30.23,NW,319,6.0,12.0,65,0.00,,,0.07,Wunderground v.1.15,2013-04-20 17:44:00,
2013-04-20 13:50:00,34.8,23.5,30.24,West,279,6.0,9.0,63,0.00,,,0.08,Wunderground v.1.15,2013-04-20 17:50:00,
2013-04-20 13:55:00,34.7,22.6,30.24,NNW,336,6.0,11.0,61,0.00,,,0.08,Wunderground v.1.15,2013-04-20 17:55:00,
2013-04-20 14:01:00,34.7,22.2,30.24,NNW,330,7.0,10.0,60,0.00,,,0.08,Wunderground v.1.15,2013-04-20 18:01:00,
2013-04-20 14:06:00,34.5,22.8,30.24,NW,322,8.0,14.0,62,0.00,,,0.08,Wunderground v.1.15,2013-04-20 18:06:00,
2013-04-20 14:12:00,34.4,22.3,30.25,North,355,8.0,8.0,61,0.00,,,0.08,Wunderground v.1.15,2013-04-20 18:12:00,
2013-04-20 14:18:00,34.7,22.2,30.25,WSW,255,7.0,13.0,60,0.00,,,0.08,Wunderground v.1.15,2013-04-20 18:18:00,
2013-04-20 14:23:00,35.0,22.9,30.25,WNW,286,6.0,6.0,61,0.00,,,0.08,Wunderground v.1.15,2013-04-20 18:23:00,
2013-04-20 14:29:00,35.3,22.8,30.26,NW,309,7.0,10.0,60,0.00,,,0.09,Wunderground v.1.15,2013-04-20 18:29:00,
2013-04-20 14:35:00,34.8,23.1,30.26,WNW,284,8.0,12.0,62,0.00,,,0.09,Wunderground v.1.15,2013-04-20 18:35:00,
2013-04-20 14:41:00,34.7,23.4,30.26,West,278,7.0,7.0,63,0.00,,,0.09,Wunderground v.1.15,2013-04-20 18:41:00,
2013-04-20 14:46:00,34.9,23.9,30.27,NNW,331,6.0,10.0,64,0.00,,,0.09,Wunderground v.1.15,2013-04-20 18:46:00,
2013-04-20 14:51:00,35.2,22.7,30.27,WNW,293,6.0,11.0,60,0.00,,,0.09,Wunderground v.1.15,2013-04-20 18:51:00,
2013-04-20 14:57:00,35.6,23.5,30.27,NW,315,6.0,11.0,61,0.00,,,0.09,Wunderground v.1.15,2013-04-20 18:57:00,
2013-04-20 15:02:00,35.7,23.9,30.27,NNW,340,6.0,10.0,62,0.00,,,0.09,Wunderground v.1.15,2013-04-20 19:02:00,
2013-04-20 15:08:00,35.4,23.3,30.28,NW,317,6.0,12.0,61,0.00,,,0.09,Wunderground v.1.15,2013-04-20 19:08:00,
2013-04-20 15:14:00,35.2,23.1,30.27,West,274,6.0,6.0,61,0.00,,,0.09,Wunderground v.1.15,2013-04-20 19:14:00,
2013-04-20 15:20:00,35.2,24.2,30.28,NW,315,6.0,11.0,64,0.00,,,0.09,Wunderground v.1.15,2013-04-20 19:20:00,
2013-04-20 15:26:00,35.4,24.4,30.29,NW,319,6.0,12.0,64,0.00,,,0.09,Wunderground v.1.15,2013-04-20 19:26:00,
2013-04-20 15:32:00,35.3,23.6,30.29,NNW,334,7.0,11.0,62,0.00,,,0.09,Wunderground v.1.15,2013-04-20 19:32:00,
2013-04-20 15:37:00,35.4,24.0,30.29,WNW,284,8.0,11.0,63,0.00,,,0.09,Wunderground v.1.15,2013-04-20 19:37:00,
2013-04-20 15:43:00,35.8,23.7,30.29,North,360,7.0,10.0,61,0.00,,,0.09,Wunderground v.1.15,2013-04-20 19:43:00,
2013-04-20 15:48:00,36.1,23.9,30.29,WNW,287,8.0,10.0,61,0.00,,,0.09,Wunderground v.1.15,2013-04-20 19:48:00,
2013-04-20 15:53:00,36.1,24.3,30.29,NW,319,8.0,9.0,62,0.00,,,0.09,Wunderground v.1.15,2013-04-20 19:53:00,
2013-04-20 15:59:00,36.0,24.2,30.29,NNW,342,6.0,9.0,62,0.00,,,0.09,Wunderground v.1.15,2013-04-20 19:59:00,
2013-04-20 16:05:00,36.1,25.1,30.29,NNW,333,6.0,10.0,64,0.00,,,0.09,Wunderground v.1.15,2013-04-20 20:05:00,
2013-04-20 16:11:00,37.0,25.6,30.29,NW,318,5.0,10.0,63,0.00,,,0.09,Wunderground v.1.15,2013-04-20 20:11:00,
2013-04-20 16:17:00,36.5,24.3,30.30,NNW,338,6.0,12.0,61,0.00,,,0.09,Wunderground v.1.15,2013-04-20 20:17:00,
2013-04-20 16:22:00,36.1,23.9,30.30,NNW,342,6.0,11.0,61,0.00,,,0.09,Wunderground v.1.15,2013-04-20 20:22:00,
2013-04-20 16:28:00,35.6,23.5,30.30,NW,317,7.0,11.0,61,0.00,,,0.09,Wunderground v.1.15,2013-04-20 20:28:00,
2013-04-20 16:34:00,35.5,23.8,30.31,NW,312,7.0,9.0,62,0.00,,,0.09,Wunderground v.1.15,2013-04-20 20:34:00,
2013-04-20 16:40:00,35.4,24.0,30.31,North,355,6.0,10.0,63,0.00,,,0.09,Wunderground v.1.15,2013-04-20 20:40:00,
2013-04-20 16:45:00,35.3,24.7,30.32,WNW,287,7.0,10.0,65,0.00,,,0.09,Wunderground v.1.15,2013-04-20 20:45:00,
2013-04-20 16:51:00,35.2,25.0,30.32,NNW,334,6.0,7.0,66,0.00,,,0.09,Wunderground v.1.15,2013-04-20 20:51:00,
2013-04-20 16:56:00,35.5,24.9,30.32,NNW,336,6.0,12.0,65,0.00,,,0.09,Wunderground v.1.15,2013-04-20 20:56:00,
2013-04-20 17:02:00,36.3,24.9,30.32,NNW,331,6.0,6.0,63,0.00,,,0.09,Wunderground v.1.15,2013-04-20 21:02:00,
2013-04-20 17:07:00,36.8,24.6,30.32,NW,304,5.0,6.0,61,0.00,,,0.09,Wunderground v.1.15,2013-04-20 21:07:00,
2013-04-20 17:12:00,36.6,24.4,30.32,West,271,4.0,5.0,61,0.00,,,0.09,Wunderground v.1.15,2013-04-20 21:12:00,
2013-04-20 17:18:00,36.4,23.8,30.32,NW,319,5.0,9.0,60,0.00,,,0.09,Wunderground v.1.15,2013-04-20 21:18:00,
2013-04-20 17:23:00,36.4,24.6,30.33,NW,321,6.0,10.0,62,0.00,,,0.09,Wunderground v.1.15,2013-04-20 21:23:00,
2013-04-20 17:29:00,36.2,24.0,30.33,NNW,342,6.0,9.0,61,0.00,,,0.09,Wunderground v.1.15,2013-04-20 21:29:00,
2013-04-20 17:35:00,36.1,25.1,30.33,WNW,300,5.0,9.0,64,0.00,,,0.09,Wunderground v.1.15,2013-04-20 21:35:00,
2013-04-20 17:40:00,36.3,25.3,30.34,WNW,302,5.0,6.0,64,0.00,,,0.09,Wunderground v.1.15,2013-04-20 21:40:00,
2013-04-20 17:45:00,36.0,25.0,30.34,WNW,298,6.0,7.0,64,0.00,,,0.09,Wunderground v.1.15,2013-04-20 21:45:00,
2013-04-20 17:51:00,35.9,24.5,30.34,NNW,327,5.0,5.0,63,0.00,,,0.09,Wunderground v.1.15,2013-04-20 21:51:00,
2013-04-20 17:57:00,35.9,24.1,30.34,NNW,334,6.0,11.0,62,0.00,,,0.09,Wunderground v.1.15,2013-04-20 21:57:00,
2013-04-20 18:02:00,35.8,23.7,30.35,NNW,330,6.0,11.0,61,0.00,,,0.09,Wunderground v.1.15,2013-04-20 22:02:00,
2013-04-20 18:08:00,35.6,24.6,30.35,NNW,338,7.0,14.0,64,0.00,,,0.09,Wunderground v.1.15,2013-04-20 22:08:00,
2013-04-20 18:13:00,35.3,24.3,30.35,West,277,6.0,11.0,64,0.00,,,0.09,Wunderground v.1.15,2013-04-20 22:13:00,
2013-04-20 18:19:00,35.2,24.2,30.35,North,355,4.0,11.0,64,0.00,,,0.09,Wunderground v.1.15,2013-04-20 22:19:00,
2013-04-20 18:24:00,35.5,25.3,30.35,North,355,2.0,4.0,66,0.00,,,0.09,Wunderground v.1.15,2013-04-20 22:24:00,
2013-04-20 18:30:00,36.1,23.9,30.36,NNW,328,3.0,3.0,61,0.00,,,0.09,Wunderground v.1.15,2013-04-20 22:30:00,
2013-04-20 18:35:00,36.3,23.7,30.36,NNW,346,5.0,6.0,60,0.00,,,0.09,Wunderground v.1.15,2013-04-20 22:35:00,
2013-04-20 18:41:00,36.2,23.2,30.36,NNW,331,6.0,12.0,59,0.00,,,0.09,Wunderground v.1.15,2013-04-20 22:41:00,
2013-04-20 18:46:00,36.0,24.2,30.36,NW,321,6.0,12.0,62,0.00,,,0.09,Wunderground v.1.15,2013-04-20 22:46:00,
2013-04-20 18:52:00,35.5,24.9,30.37,NNW,336,6.0,9.0,65,0.00,,,0.09,Wunderground v.1.15,2013-04-20 22:52:00,
2013-04-20 18:58:00,35.2,24.2,30.37,NW,313,5.0,9.0,64,0.00,,,0.09,Wunderground v.1.15,2013-04-20 22:58:00,
2013-04-20 19:03:00,35.3,24.3,30.37,NNW,340,3.0,4.0,64,0.00,,,0.09,Wunderground v.1.15,2013-04-20 23:03:00,
2013-04-20 19:09:00,35.2,23.9,30.37,NNW,341,3.0,6.0,63,0.00,,,0.09,Wunderground v.1.15,2013-04-20 23:09:00,
2013-04-20 19:15:00,35.1,23.4,30.37,NW,311,5.0,10.0,62,0.00,,,0.09,Wunderground v.1.15,2013-04-20 23:15:00,
2013-04-20 19:21:00,35.0,23.3,30.37,North,355,4.0,6.0,62,0.00,,,0.09,Wunderground v.1.15,2013-04-20 23:21:00,
2013-04-20 19:27:00,34.9,23.2,30.38,North,360,4.0,8.0,62,0.00,,,0.09,Wunderground v.1.15,2013-04-20 23:27:00,
2013-04-20 19:32:00,35.0,23.3,30.38,NNW,343,4.0,7.0,62,0.00,,,0.09,Wunderground v.1.15,2013-04-20 23:32:00,
2013-04-20 19:37:00,35.2,23.5,30.38,NNW,345,4.0,7.0,62,0.00,,,0.09,Wunderground v.1.15,2013-04-20 23:37:00,
2013-04-20 19:43:00,35.3,23.6,30.39,WNW,283,3.0,5.0,62,0.00,,,0.09,Wunderground v.1.15,2013-04-20 23:43:00,
2013-04-20 19:49:00,35.1,23.0,30.39,WNW,291,3.0,5.0,61,0.00,,,0.09,Wunderground v.1.15,2013-04-20 23:49:00,
2013-04-20 19:54:00,35.0,22.9,30.39,WNW,291,2.0,3.0,61,0.00,,,0.09,Wunderground v.1.15,2013-04-20 23:54:00,
2013-04-20 20:00:00,34.7,23.0,30.39,NW,323,3.0,3.0,62,0.00,,,0.09,Wunderground v.1.15,2013-04-21 00:00:00,
2013-04-20 20:05:00,34.4,22.3,30.40,NW,326,4.0,9.0,61,0.00,,,0.09,Wunderground v.1.15,2013-04-21 00:05:00,
2013-04-20 20:11:00,34.4,22.3,30.40,North,5,5.0,5.0,61,0.00,,,0.09,Wunderground v.1.15,2013-04-21 00:11:00,
2013-04-20 20:16:00,34.4,22.3,30.40,North,360,4.0,5.0,61,0.00,,,0.09,Wunderground v.1.15,2013-04-21 00:16:00,
2013-04-20 20:21:00,34.4,22.7,30.40,North,360,3.0,6.0,62,0.00,,,0.09,Wunderground v.1.15,2013-04-21 00:21:00,
2013-04-20 20:27:00,34.2,22.9,30.41,North,350,3.0,6.0,63,0.00,,,0.09,Wunderground v.1.15,2013-04-21 00:27:00,
2013-04-20 20:32:00,34.0,23.1,30.41,North,5,3.0,3.0,64,0.00,,,0.09,Wunderground v.1.15,2013-04-21 00:32:00,
2013-04-20 20:37:00,33.9,23.4,30.41,North,5,1.0,3.0,65,0.00,,,0.09,Wunderground v.1.15,2013-04-21 00:37:00,
2013-04-20 20:43:00,33.7,23.2,30.42,North,360,1.0,2.0,65,0.00,,,0.09,Wunderground v.1.15,2013-04-21 00:43:00,
2013-04-20 20:49:00,33.6,23.4,30.42,North,5,1.0,2.0,66,0.00,,,0.09,Wunderground v.1.15,2013-04-21 00:49:00,
2013-04-20 20:54:00,33.4,23.3,30.42,North,5,0.0,0.0,66,0.00,,,0.09,Wunderground v.1.15,2013-04-21 00:54:00,
2013-04-20 21:00:00,33.3,23.2,30.42,North,5,1.0,1.0,66,0.00,,,0.09,Wunderground v.1.15,2013-04-21 01:00:00,
2013-04-20 21:05:00,33.1,23.3,30.42,North,5,1.0,1.0,67,0.00,,,0.09,Wunderground v.1.15,2013-04-21 01:05:00,
2013-04-20 21:11:00,32.8,23.0,30.42,North,360,0.0,0.0,67,0.00,,,0.09,Wunderground v.1.15,2013-04-21 01:11:00,
2013-04-20 21:16:00,32.6,22.8,30.42,North,5,0.0,0.0,67,0.00,,,0.09,Wunderground v.1.15,2013-04-21 01:16:00,
2013-04-20 21:21:00,32.3,22.9,30.43,North,360,0.0,0.0,68,0.00,,,0.09,Wunderground v.1.15,2013-04-21 01:21:00,
2013-04-20 21:27:00,32.0,22.6,30.43,North,5,0.0,0.0,68,0.00,,,0.09,Wunderground v.1.15,2013-04-21 01:27:00,
2013-04-20 21:33:00,31.6,22.9,30.43,North,5,0.0,0.0,70,0.00,,,0.09,Wunderground v.1.15,2013-04-21 01:33:00,
2013-04-20 21:38:00,31.3,22.6,30.44,North,5,0.0,0.0,70,0.00,,,0.09,Wunderground v.1.15,2013-04-21 01:38:00,
2013-04-20 21:44:00,30.9,22.6,30.45,North,360,0.0,0.0,71,0.00,,,0.09,Wunderground v.1.15,2013-04-21 01:44:00,
2013-04-20 21:49:00,30.6,22.6,30.45,North,5,0.0,0.0,72,0.00,,,0.09,Wunderground v.1.15,2013-04-21 01:49:00,
2013-04-20 21:54:00,30.3,22.7,30.46,North,360,0.0,0.0,73,0.00,,,0.09,Wunderground v.1.15,2013-04-21 01:54:00,
2013-04-20 22:00:00,30.1,22.8,30.46,North,360,0.0,0.0,74,0.00,,,0.09,Wunderground v.1.15,2013-04-21 02:00:00,
2013-04-20 22:06:00,29.8,22.5,30.46,North,5,0.0,0.0,74,0.00,,,0.09,Wunderground v.1.15,2013-04-21 02:06:00,
2013-04-20 22:11:00,29.5,22.6,30.46,North,5,0.0,0.0,75,0.00,,,0.09,Wunderground v.1.15,2013-04-21 02:11:00,
2013-04-20 22:17:00,29.3,22.7,30.46,North,360,0.0,0.0,76,0.00,,,0.09,Wunderground v.1.15,2013-04-21 02:17:00,
2013-04-20 22:23:00,28.9,22.3,30.46,North,5,0.0,0.0,76,0.00,,,0.09,Wunderground v.1.15,2013-04-21 02:23:00,
2013-04-20 22:29:00,28.6,22.6,30.47,North,5,0.0,0.0,78,0.00,,,0.09,Wunderground v.1.15,2013-04-21 02:29:00,
2013-04-20 22:34:00,28.4,22.7,30.46,North,5,0.0,0.0,79,0.00,,,0.09,Wunderground v.1.15,2013-04-21 02:34:00,
2013-04-20 22:40:00,28.2,22.5,30.47,North,5,0.0,0.0,79,0.00,,,0.09,Wunderground v.1.15,2013-04-21 02:40:00,
2013-04-20 22:45:00,28.0,22.3,30.47,North,5,0.0,0.0,79,0.00,,,0.09,Wunderground v.1.15,2013-04-21 02:45:00,
2013-04-20 22:50:00,27.9,22.5,30.47,North,360,0.0,0.0,80,0.00,,,0.09,Wunderground v.1.15,2013-04-21 02:50:00,
2013-04-20 22:55:00,27.9,22.5,30.47,North,360,0.0,0.0,80,0.00,,,0.09,Wunderground v.1.15,2013-04-21 02:55:00,
2013-04-20 23:01:00,27.8,22.7,30.48,North,360,0.0,0.0,81,0.00,,,0.09,Wunderground v.1.15,2013-04-21 03:01:00,
2013-04-20 23:06:00,27.7,22.6,30.48,North,5,0.0,0.0,81,0.00,,,0.09,Wunderground v.1.15,2013-04-21 03:06:00,
2013-04-20 23:12:00,27.6,22.5,30.48,North,360,0.0,0.0,81,0.00,,,0.09,Wunderground v.1.15,2013-04-21 03:12:00,
2013-04-20 23:17:00,27.4,22.6,30.48,North,5,0.0,0.0,82,0.00,,,0.09,Wunderground v.1.15,2013-04-21 03:17:00,
2013-04-20 23:23:00,27.2,22.4,30.48,North,5,0.0,0.0,82,0.00,,,0.09,Wunderground v.1.15,2013-04-21 03:23:00,
2013-04-20 23:29:00,27.0,22.5,30.49,North,5,0.0,0.0,83,0.00,,,0.09,Wunderground v.1.15,2013-04-21 03:29:00,
2013-04-20 23:34:00,26.9,22.7,30.49,North,5,0.0,0.0,84,0.00,,,0.09,Wunderground v.1.15,2013-04-21 03:34:00,
2013-04-20 23:40:00,26.7,22.5,30.49,North,360,0.0,0.0,84,0.00,,,0.09,Wunderground v.1.15,2013-04-21 03:40:00,
2013-04-20 23:45:00,26.6,22.4,30.49,North,5,0.0,0.0,84,0.00,,,0.09,Wunderground v.1.15,2013-04-21 03:45:00,
2013-04-20 23:50:00,26.5,22.3,30.49,North,5,0.0,0.0,84,0.00,,,0.09,Wunderground v.1.15,2013-04-21 03:50:00,
2013-04-20 23:55:00,26.4,22.5,30.49,North,5,0.0,0.0,85,0.00,,,0.09,Wunderground v.1.15,2013-04-21 03:55:00,